sensor_id;sensor_type;location;lat;lon;timestamp;pressure;altitude;pressure_sealevel;temperature;humidity
25722;BME280;13578;53.450;15.496;2023-02-15T00:02:57;101404.47;;;-1.87;100.00
25722;BME280;13578;53.450;15.496;2023-02-15T00:05:58;101396.47;;;-1.92;100.00
25722;BME280;13578;53.450;15.496;2023-02-15T00:08:58;101399.06;;;-1.86;100.00
25722;BME280;13578;53.450;15.496;2023-02-15T00:11:59;101395.53;;;-1.89;100.00
25722;BME280;13578;53.450;15.496;2023-02-15T00:14:59;101386.50;;;-1.87;100.00
25722;BME280;13578;53.450;15.496;2023-02-15T00:18:00;101390.00;;;-1.79;100.00
25722;BME280;13578;53.450;15.496;2023-02-15T00:21:08;101389.19;;;-1.84;100.00
25722;BME280;13578;53.450;15.496;2023-02-15T00:24:11;101399.97;;;-1.87;100.00
25722;BME280;13578;53.450;15.496;2023-02-15T00:27:12;101383.09;;;-1.98;100.00
25722;BME280;13578;53.450;15.496;2023-02-15T00:30:13;101383.19;;;-2.08;100.00
25722;BME280;13578;53.450;15.496;2023-02-15T00:33:13;101390.41;;;-2.11;100.00
25722;BME280;13578;53.450;15.496;2023-02-15T00:36:14;101381.41;;;-2.09;100.00
25722;BME280;13578;53.450;15.496;2023-02-15T00:39:15;101372.44;;;-2.08;100.00
25722;BME280;13578;53.450;15.496;2023-02-15T00:42:16;101375.06;;;-2.04;100.00
25722;BME280;13578;53.450;15.496;2023-02-15T00:45:17;101375.06;;;-2.04;100.00
25722;BME280;13578;53.450;15.496;2023-02-15T00:48:18;101366.09;;;-2.03;100.00
25722;BME280;13578;53.450;15.496;2023-02-15T00:51:19;101362.56;;;-2.09;100.00
25722;BME280;13578;53.450;15.496;2023-02-15T00:54:20;101365.16;;;-2.01;100.00
25722;BME280;13578;53.450;15.496;2023-02-15T00:57:21;101372.44;;;-2.09;100.00
25722;BME280;13578;53.450;15.496;2023-02-15T01:00:22;101362.66;;;-2.16;100.00
25722;BME280;13578;53.450;15.496;2023-02-15T01:03:22;101366.28;;;-2.17;100.00
25722;BME280;13578;53.450;15.496;2023-02-15T01:06:23;101354.66;;;-2.22;100.00
25722;BME280;13578;53.450;15.496;2023-02-15T01:09:23;101359.13;;;-2.18;100.00
25722;BME280;13578;53.450;15.496;2023-02-15T01:12:24;101365.38;;;-2.18;100.00
25722;BME280;13578;53.450;15.496;2023-02-15T01:15:25;101363.59;;;-2.19;100.00
25722;BME280;13578;53.450;15.496;2023-02-15T01:18:26;101369.94;;;-2.26;100.00
25722;BME280;13578;53.450;15.496;2023-02-15T01:21:26;101365.53;;;-2.30;100.00
25722;BME280;13578;53.450;15.496;2023-02-15T01:24:27;101364.75;;;-2.40;100.00
25722;BME280;13578;53.450;15.496;2023-02-15T01:27:28;101360.34;;;-2.49;100.00
25722;BME280;13578;53.450;15.496;2023-02-15T01:30:30;101358.56;;;-2.48;100.00
25722;BME280;13578;53.450;15.496;2023-02-15T01:33:31;101352.22;;;-2.44;100.00
25722;BME280;13578;53.450;15.496;2023-02-15T01:36:33;101352.19;;;-2.40;100.00
25722;BME280;13578;53.450;15.496;2023-02-15T01:39:34;101345.97;;;-2.45;100.00
25722;BME280;13578;53.450;15.496;2023-02-15T01:42:35;101348.59;;;-2.42;100.00
25722;BME280;13578;53.450;15.496;2023-02-15T01:45:39;101345.00;;;-2.41;100.00
25722;BME280;13578;53.450;15.496;2023-02-15T01:48:45;101344.16;;;-2.43;100.00
25722;BME280;13578;53.450;15.496;2023-02-15T01:51:48;101341.41;;;-2.40;100.00
25722;BME280;13578;53.450;15.496;2023-02-15T01:54:52;101338.69;;;-2.38;100.00
25722;BME280;13578;53.450;15.496;2023-02-15T01:57:54;101331.56;;;-2.41;100.00
25722;BME280;13578;53.450;15.496;2023-02-15T02:00:57;101326.19;;;-2.41;100.00
25722;BME280;13578;53.450;15.496;2023-02-15T02:07:06;101328.84;;;-2.37;100.00
25722;BME280;13578;53.450;15.496;2023-02-15T02:10:08;101321.72;;;-2.40;100.00
25722;BME280;13578;53.450;15.496;2023-02-15T02:13:10;101310.09;;;-2.42;100.00
25722;BME280;13578;53.450;15.496;2023-02-15T02:16:20;101312.00;;;-2.52;100.00
25722;BME280;13578;53.450;15.496;2023-02-15T02:30:06;101305.75;;;-2.54;100.00
25722;BME280;13578;53.450;15.496;2023-02-15T02:34:12;101298.63;;;-2.58;100.00
25722;BME280;13578;53.450;15.496;2023-02-15T02:41:20;101288.69;;;-2.53;100.00
25722;BME280;13578;53.450;15.496;2023-02-15T02:44:35;101293.13;;;-2.49;100.00
25722;BME280;13578;53.450;15.496;2023-02-15T02:47:52;101276.16;;;-2.54;100.00
25722;BME280;13578;53.450;15.496;2023-02-15T02:50:53;101283.50;;;-2.68;100.00
25722;BME280;13578;53.450;15.496;2023-02-15T02:53:56;101271.94;;;-2.77;100.00
25722;BME280;13578;53.450;15.496;2023-02-15T02:57:01;101272.88;;;-2.79;100.00
25722;BME280;13578;53.450;15.496;2023-02-15T03:00:04;101263.84;;;-2.74;100.00
25722;BME280;13578;53.450;15.496;2023-02-15T03:03:30;101271.91;;;-2.72;100.00
25722;BME280;13578;53.450;15.496;2023-02-15T03:06:43;101265.66;;;-2.76;100.00
25722;BME280;13578;53.450;15.496;2023-02-15T03:09:50;101265.66;;;-2.76;100.00
25722;BME280;13578;53.450;15.496;2023-02-15T03:12:52;101266.53;;;-2.74;100.00
25722;BME280;13578;53.450;15.496;2023-02-15T03:15:54;101270.13;;;-2.75;100.00
25722;BME280;13578;53.450;15.496;2023-02-15T03:19:29;101262.09;;;-2.76;100.00
25722;BME280;13578;53.450;15.496;2023-02-15T03:23:02;101254.91;;;-2.76;100.00
25722;BME280;13578;53.450;15.496;2023-02-15T03:26:05;101256.69;;;-2.75;100.00
25722;BME280;13578;53.450;15.496;2023-02-15T03:29:08;101248.66;;;-2.76;100.00
25722;BME280;13578;53.450;15.496;2023-02-15T03:32:11;101246.81;;;-2.73;100.00
25722;BME280;13578;53.450;15.496;2023-02-15T03:35:12;101231.53;;;-2.67;100.00
25722;BME280;13578;53.450;15.496;2023-02-15T03:38:17;101233.41;;;-2.76;100.00
25722;BME280;13578;53.450;15.496;2023-02-15T03:41:23;101235.22;;;-2.78;100.00
25722;BME280;13578;53.450;15.496;2023-02-15T03:44:31;101212.91;;;-2.86;100.00
25722;BME280;13578;53.450;15.496;2023-02-15T03:47:33;101228.16;;;-2.83;100.00
25722;BME280;13578;53.450;15.496;2023-02-15T03:50:37;101223.72;;;-2.89;100.00
25722;BME280;13578;53.450;15.496;2023-02-15T03:53:57;101218.38;;;-2.92;100.00
25722;BME280;13578;53.450;15.496;2023-02-15T03:56:59;101218.44;;;-2.95;100.00
25722;BME280;13578;53.450;15.496;2023-02-15T04:00:23;101219.47;;;-3.09;100.00
25722;BME280;13578;53.450;15.496;2023-02-15T04:03:53;101211.47;;;-3.13;100.00
25722;BME280;13578;53.450;15.496;2023-02-15T04:06:56;101215.94;;;-3.12;100.00
25722;BME280;13578;53.450;15.496;2023-02-15T04:09:57;101211.41;;;-3.09;100.00
25722;BME280;13578;53.450;15.496;2023-02-15T04:13:16;101212.31;;;-3.10;100.00
25722;BME280;13578;53.450;15.496;2023-02-15T04:16:17;101201.59;;;-3.13;100.00
25722;BME280;13578;53.450;15.496;2023-02-15T04:19:19;101203.34;;;-3.10;100.00
25722;BME280;13578;53.450;15.496;2023-02-15T04:22:39;101206.94;;;-3.10;100.00
25722;BME280;13578;53.450;15.496;2023-02-15T04:25:58;101201.59;;;-3.13;100.00
25722;BME280;13578;53.450;15.496;2023-02-15T04:28:59;101194.41;;;-3.11;100.00
25722;BME280;13578;53.450;15.496;2023-02-15T04:32:00;101194.41;;;-3.11;100.00
25722;BME280;13578;53.450;15.496;2023-02-15T04:35:02;101189.06;;;-3.12;100.00
25722;BME280;13578;53.450;15.496;2023-02-15T04:38:03;101197.09;;;-3.11;100.00
25722;BME280;13578;53.450;15.496;2023-02-15T04:41:04;101188.16;;;-3.13;100.00
25722;BME280;13578;53.450;15.496;2023-02-15T04:44:05;101183.69;;;-3.12;100.00
25722;BME280;13578;53.450;15.496;2023-02-15T04:47:05;101188.22;;;-3.17;100.00
25722;BME280;13578;53.450;15.496;2023-02-15T04:50:07;101181.16;;;-3.26;100.00
25722;BME280;13578;53.450;15.496;2023-02-15T04:53:07;101186.56;;;-3.31;100.00
25722;BME280;13578;53.450;15.496;2023-02-15T04:56:08;101185.69;;;-3.31;100.00
25722;BME280;13578;53.450;15.496;2023-02-15T04:59:10;101189.19;;;-3.25;100.00
25722;BME280;13578;53.450;15.496;2023-02-15T05:02:11;101173.97;;;-3.24;100.00
25722;BME280;13578;53.450;15.496;2023-02-15T05:05:11;101180.25;;;-3.25;100.00
25722;BME280;13578;53.450;15.496;2023-02-15T05:08:13;101186.56;;;-3.28;100.00
25722;BME280;13578;53.450;15.496;2023-02-15T05:11:14;101185.72;;;-3.35;100.00
25722;BME280;13578;53.450;15.496;2023-02-15T05:14:14;101183.97;;;-3.39;100.00
25722;BME280;13578;53.450;15.496;2023-02-15T05:17:15;101185.72;;;-3.38;100.00
25722;BME280;13578;53.450;15.496;2023-02-15T05:20:16;101180.31;;;-3.31;100.00
25722;BME280;13578;53.450;15.496;2023-02-15T05:23:17;101169.59;;;-3.35;100.00
25722;BME280;13578;53.450;15.496;2023-02-15T05:26:20;101166.88;;;-3.33;100.00
25722;BME280;13578;53.450;15.496;2023-02-15T05:29:40;101161.50;;;-3.30;100.00
25722;BME280;13578;53.450;15.496;2023-02-15T05:32:40;101152.47;;;-3.23;100.00
25722;BME280;13578;53.450;15.496;2023-02-15T05:35:41;101158.69;;;-3.19;100.00
25722;BME280;13578;53.450;15.496;2023-02-15T05:38:42;101156.91;;;-3.20;100.00
25722;BME280;13578;53.450;15.496;2023-02-15T05:41:43;101153.31;;;-3.19;100.00
25722;BME280;13578;53.450;15.496;2023-02-15T05:44:43;101155.00;;;-3.09;100.00
25722;BME280;13578;53.450;15.496;2023-02-15T05:47:44;101150.41;;;-3.00;100.00
25722;BME280;13578;53.450;15.496;2023-02-15T05:50:44;101144.28;;;-3.12;100.00
25722;BME280;13578;53.450;15.496;2023-02-15T05:53:45;101146.97;;;-3.12;100.00
25722;BME280;13578;53.450;15.496;2023-02-15T05:56:46;101138.00;;;-3.11;100.00
25722;BME280;13578;53.450;15.496;2023-02-15T05:59:47;101132.66;;;-3.12;100.00
25722;BME280;13578;53.450;15.496;2023-02-15T06:02:47;101131.75;;;-3.13;100.00
25722;BME280;13578;53.450;15.496;2023-02-15T06:05:48;101132.63;;;-3.11;100.00
25722;BME280;13578;53.450;15.496;2023-02-15T06:08:49;101130.81;;;-3.07;100.00
25722;BME280;13578;53.450;15.496;2023-02-15T06:11:50;101138.88;;;-3.10;100.00
25722;BME280;13578;53.450;15.496;2023-02-15T06:14:50;101130.94;;;-3.18;100.00
25722;BME280;13578;53.450;15.496;2023-02-15T06:17:51;101145.16;;;-3.10;100.00
25722;BME280;13578;53.450;15.496;2023-02-15T06:20:52;101142.50;;;-3.13;100.00
25722;BME280;13578;53.450;15.496;2023-02-15T06:23:52;101140.69;;;-3.11;100.00
25722;BME280;13578;53.450;15.496;2023-02-15T06:26:53;101152.25;;;-3.04;100.00
25722;BME280;13578;53.450;15.496;2023-02-15T06:29:54;101147.78;;;-3.05;100.00
25722;BME280;13578;53.450;15.496;2023-02-15T06:32:54;101148.66;;;-3.03;100.00
25722;BME280;13578;53.450;15.496;2023-02-15T06:35:55;101144.19;;;-3.03;100.00
25722;BME280;13578;53.450;15.496;2023-02-15T06:38:56;101139.59;;;-2.94;100.00
25722;BME280;13578;53.450;15.496;2023-02-15T06:41:57;101135.94;;;-2.89;100.00
25722;BME280;13578;53.450;15.496;2023-02-15T06:44:58;101131.31;;;-2.79;100.00
25722;BME280;13578;53.450;15.496;2023-02-15T06:48:00;101124.94;;;-2.72;100.00
25722;BME280;13578;53.450;15.496;2023-02-15T06:51:01;101130.22;;;-2.64;100.00
25722;BME280;13578;53.450;15.496;2023-02-15T06:54:01;101130.09;;;-2.54;100.00
25722;BME280;13578;53.450;15.496;2023-02-15T06:57:02;101120.09;;;-2.45;100.00
25722;BME280;13578;53.450;15.496;2023-02-15T07:00:04;101129.03;;;-2.43;100.00
25722;BME280;13578;53.450;15.496;2023-02-15T07:03:05;101124.44;;;-2.36;100.00
25722;BME280;13578;53.450;15.496;2023-02-15T07:06:06;101111.00;;;-2.37;100.00
25722;BME280;13578;53.450;15.496;2023-02-15T07:09:08;101113.53;;;-2.27;100.00
25722;BME280;13578;53.450;15.496;2023-02-15T07:12:09;101104.41;;;-2.18;100.00
25722;BME280;13578;53.450;15.496;2023-02-15T07:15:28;101098.78;;;-2.02;100.00
25722;BME280;13578;53.450;15.496;2023-02-15T07:18:29;101089.69;;;-1.95;100.00
25722;BME280;13578;53.450;15.496;2023-02-15T07:21:30;101086.06;;;-1.93;100.00
25722;BME280;13578;53.450;15.496;2023-02-15T07:24:31;101073.41;;;-1.89;100.00
25722;BME280;13578;53.450;15.496;2023-02-15T07:27:32;101079.63;;;-1.84;100.00
25722;BME280;13578;53.450;15.496;2023-02-15T07:30:32;101079.63;;;-1.84;100.00
25722;BME280;13578;53.450;15.496;2023-02-15T07:33:34;101083.91;;;-1.73;100.00
25722;BME280;13578;53.450;15.496;2023-02-15T07:36:34;101078.41;;;-1.67;100.00
25722;BME280;13578;53.450;15.496;2023-02-15T07:39:35;101075.59;;;-1.61;100.00
25722;BME280;13578;53.450;15.496;2023-02-15T07:42:36;101065.59;;;-1.54;100.00
25722;BME280;13578;53.450;15.496;2023-02-15T07:45:37;101065.44;;;-1.47;100.00
25722;BME280;13578;53.450;15.496;2023-02-15T07:48:39;101064.34;;;-1.36;100.00
25722;BME280;13578;53.450;15.496;2023-02-15T07:51:40;101052.56;;;-1.31;100.00
25722;BME280;13578;53.450;15.496;2023-02-15T07:54:41;101055.91;;;-1.19;100.00
25722;BME280;13578;53.450;15.496;2023-02-15T07:57:43;101050.38;;;-1.12;100.00
25722;BME280;13578;53.450;15.496;2023-02-15T08:00:44;101052.63;;;-0.93;100.00
25722;BME280;13578;53.450;15.496;2023-02-15T08:03:57;101049.84;;;-0.88;100.00
25722;BME280;13578;53.450;15.496;2023-02-15T08:06:58;101048.84;;;-0.84;100.00
25722;BME280;13578;53.450;15.496;2023-02-15T08:09:59;101047.81;;;-0.78;100.00
25722;BME280;13578;53.450;15.496;2023-02-15T08:12:59;101037.00;;;-0.77;100.00
25722;BME280;13578;53.450;15.496;2023-02-15T08:16:01;101039.31;;;-0.61;100.00
25722;BME280;13578;53.450;15.496;2023-02-15T08:19:07;101033.00;;;-0.60;100.00
25722;BME280;13578;53.450;15.496;2023-02-15T08:22:12;101033.75;;;-0.54;100.00
25722;BME280;13578;53.450;15.496;2023-02-15T08:25:14;101032.47;;;-0.39;100.00
25722;BME280;13578;53.450;15.496;2023-02-15T08:28:14;101041.16;;;-0.26;100.00
25722;BME280;13578;53.450;15.496;2023-02-15T08:31:15;101040.88;;;-0.15;100.00
25722;BME280;13578;53.450;15.496;2023-02-15T08:34:17;101044.31;;;-0.08;100.00
25722;BME280;13578;53.450;15.496;2023-02-15T08:37:18;101039.63;;;0.00;100.00
25722;BME280;13578;53.450;15.496;2023-02-15T08:40:19;101033.13;;;0.07;100.00
25722;BME280;13578;53.450;15.496;2023-02-15T08:43:20;101031.81;;;0.22;100.00
25722;BME280;13578;53.450;15.496;2023-02-15T08:46:22;101033.47;;;0.28;100.00
25722;BME280;13578;53.450;15.496;2023-02-15T08:49:23;101021.56;;;0.35;100.00
25722;BME280;13578;53.450;15.496;2023-02-15T08:52:24;101012.22;;;0.47;100.00
25722;BME280;13578;53.450;15.496;2023-02-15T08:55:24;101014.63;;;0.58;100.00
25722;BME280;13578;53.450;15.496;2023-02-15T08:58:25;101010.56;;;0.73;100.00
25722;BME280;13578;53.450;15.496;2023-02-15T09:01:28;101013.22;;;0.74;100.00
25722;BME280;13578;53.450;15.496;2023-02-15T09:04:29;101013.00;;;0.82;100.00
25722;BME280;13578;53.450;15.496;2023-02-15T09:07:29;101001.00;;;0.91;100.00
25722;BME280;13578;53.450;15.496;2023-02-15T09:10:30;101003.50;;;0.97;100.00
25722;BME280;13578;53.450;15.496;2023-02-15T09:13:31;101000.63;;;1.03;100.00
25722;BME280;13578;53.450;15.496;2023-02-15T09:16:33;100995.75;;;1.15;100.00
25722;BME280;13578;53.450;15.496;2023-02-15T09:19:34;100999.13;;;1.23;100.00
25722;BME280;13578;53.450;15.496;2023-02-15T09:22:34;101001.91;;;1.20;100.00
25722;BME280;13578;53.450;15.496;2023-02-15T09:25:35;101006.03;;;1.32;100.00
25722;BME280;13578;53.450;15.496;2023-02-15T09:28:37;100998.56;;;1.40;100.00
25722;BME280;13578;53.450;15.496;2023-02-15T09:31:46;100990.19;;;1.48;100.00
25722;BME280;13578;53.450;15.496;2023-02-15T09:34:47;100997.78;;;1.63;100.00
25722;BME280;13578;53.450;15.496;2023-02-15T09:37:48;100993.69;;;1.78;100.00
25722;BME280;13578;53.450;15.496;2023-02-15T09:41:12;100994.88;;;1.96;100.00
25722;BME280;13578;53.450;15.496;2023-02-15T09:44:29;100984.69;;;2.03;100.00
25722;BME280;13578;53.450;15.496;2023-02-15T09:54:26;100988.72;;;2.42;100.00
25722;BME280;13578;53.450;15.496;2023-02-15T09:57:41;100988.59;;;2.45;100.00
25722;BME280;13578;53.450;15.496;2023-02-15T10:27:49;100988.34;;;3.22;100.00
25722;BME280;13578;53.450;15.496;2023-02-15T10:30:54;100993.53;;;3.27;100.00
25722;BME280;13578;53.450;15.496;2023-02-15T11:00:02;100967.25;;;3.51;100.00
25722;BME280;13578;53.450;15.496;2023-02-15T11:06:18;100965.88;;;3.61;100.00
25722;BME280;13578;53.450;15.496;2023-02-15T11:09:22;100955.31;;;3.76;100.00
25722;BME280;13578;53.450;15.496;2023-02-15T11:12:27;100959.41;;;3.86;100.00
25722;BME280;13578;53.450;15.496;2023-02-15T11:15:34;100955.47;;;3.93;100.00
25722;BME280;13578;53.450;15.496;2023-02-15T11:18:40;100945.81;;;4.07;100.00
25722;BME280;13578;53.450;15.496;2023-02-15T11:21:45;100934.75;;;4.11;100.00
25722;BME280;13578;53.450;15.496;2023-02-15T11:24:50;100938.59;;;4.26;100.00
25722;BME280;13578;53.450;15.496;2023-02-15T11:27:53;100920.25;;;4.32;100.00
25722;BME280;13578;53.450;15.496;2023-02-15T11:30:56;100926.47;;;4.34;100.00
25722;BME280;13578;53.450;15.496;2023-02-15T11:34:03;100917.69;;;4.48;100.00
25722;BME280;13578;53.450;15.496;2023-02-15T11:37:16;100923.06;;;4.49;100.00
25722;BME280;13578;53.450;15.496;2023-02-15T11:40:31;100912.19;;;4.49;100.00
25722;BME280;13578;53.450;15.496;2023-02-15T11:43:44;100907.78;;;4.66;100.00
25722;BME280;13578;53.450;15.496;2023-02-15T11:46:49;100903.81;;;4.73;100.00
25722;BME280;13578;53.450;15.496;2023-02-15T11:49:50;100907.78;;;4.85;100.00
25722;BME280;13578;53.450;15.496;2023-02-15T11:52:52;100904.75;;;4.91;100.00
25722;BME280;13578;53.450;15.496;2023-02-15T11:55:55;100897.97;;;5.00;100.00
25722;BME280;13578;53.450;15.496;2023-02-15T11:59:03;100893.72;;;5.13;100.00
25722;BME280;13578;53.450;15.496;2023-02-15T12:02:17;100898.25;;;5.13;100.00
25722;BME280;13578;53.450;15.496;2023-02-15T12:05:21;100890.72;;;5.18;100.00
25722;BME280;13578;53.450;15.496;2023-02-15T12:08:34;100893.41;;;5.19;100.00
25722;BME280;13578;53.450;15.496;2023-02-15T12:11:39;100892.06;;;5.28;100.00
25722;BME280;13578;53.450;15.496;2023-02-15T12:14:49;100889.69;;;5.39;100.00
25722;BME280;13578;53.450;15.496;2023-02-15T12:17:52;100892.13;;;5.44;100.00
25722;BME280;13578;53.450;15.496;2023-02-15T12:20:59;100888.13;;;5.51;100.00
25722;BME280;13578;53.450;15.496;2023-02-15T12:24:30;100894.00;;;5.61;100.00
25722;BME280;13578;53.450;15.496;2023-02-15T12:27:33;100891.59;;;5.72;100.00
25722;BME280;13578;53.450;15.496;2023-02-15T12:30:35;100885.09;;;5.75;100.00
25722;BME280;13578;53.450;15.496;2023-02-15T12:33:42;100885.66;;;5.82;100.00
25722;BME280;13578;53.450;15.496;2023-02-15T12:36:57;100887.19;;;5.70;100.00
25722;BME280;13578;53.450;15.496;2023-02-15T12:40:00;100881.28;;;5.79;100.00
25722;BME280;13578;53.450;15.496;2023-02-15T12:43:01;100878.38;;;5.82;100.00
25722;BME280;13578;53.450;15.496;2023-02-15T12:46:24;100873.31;;;5.92;100.00
25722;BME280;13578;53.450;15.496;2023-02-15T12:49:29;100868.28;;;6.02;100.00
25722;BME280;13578;53.450;15.496;2023-02-15T12:52:30;100870.28;;;5.98;100.00
25722;BME280;13578;53.450;15.496;2023-02-15T12:55:31;100864.56;;;6.03;100.00
25722;BME280;13578;53.450;15.496;2023-02-15T12:58:33;100859.78;;;6.08;100.00
25722;BME280;13578;53.450;15.496;2023-02-15T13:01:34;100875.78;;;5.97;100.00
25722;BME280;13578;53.450;15.496;2023-02-15T13:04:36;100861.53;;;6.09;100.00
25722;BME280;13578;53.450;15.496;2023-02-15T13:07:37;100852.78;;;6.20;100.00
25722;BME280;13578;53.450;15.496;2023-02-15T13:13:59;100852.72;;;6.04;100.00
25722;BME280;13578;53.450;15.496;2023-02-15T13:17:03;100843.69;;;6.03;100.00
25722;BME280;13578;53.450;15.496;2023-02-15T13:20:09;100849.03;;;6.05;100.00
25722;BME280;13578;53.450;15.496;2023-02-15T13:23:27;100846.16;;;6.08;100.00
25722;BME280;13578;53.450;15.496;2023-02-15T13:26:30;100843.78;;;6.18;100.00
25722;BME280;13578;53.450;15.496;2023-02-15T13:29:34;100837.88;;;6.10;100.00
25722;BME280;13578;53.450;15.496;2023-02-15T13:32:38;100841.06;;;6.18;100.00
25722;BME280;13578;53.450;15.496;2023-02-15T13:39:06;100829.41;;;6.48;100.00
25722;BME280;13578;53.450;15.496;2023-02-15T13:45:39;100827.31;;;6.53;100.00
25722;BME280;13578;53.450;15.496;2023-02-15T13:52:16;100817.59;;;6.47;100.00
25722;BME280;13578;53.450;15.496;2023-02-15T13:55:29;100817.19;;;6.55;100.00
25722;BME280;13578;53.450;15.496;2023-02-15T14:01:57;100808.81;;;6.58;100.00
25722;BME280;13578;53.450;15.496;2023-02-15T14:12:37;100802.75;;;6.53;100.00
25722;BME280;13578;53.450;15.496;2023-02-15T14:15:47;100802.03;;;6.49;100.00
25722;BME280;13578;53.450;15.496;2023-02-15T14:25:40;100794.56;;;6.37;100.00
25722;BME280;13578;53.450;15.496;2023-02-15T14:28:44;100788.56;;;6.30;100.00
25722;BME280;13578;53.450;15.496;2023-02-15T14:31:51;100778.72;;;6.12;100.00
25722;BME280;13578;53.450;15.496;2023-02-15T14:34:57;100776.34;;;6.06;100.00
25722;BME280;13578;53.450;15.496;2023-02-15T14:44:40;100775.63;;;5.84;100.00
25722;BME280;13578;53.450;15.496;2023-02-15T14:48:01;100780.47;;;5.79;100.00
25722;BME280;13578;53.450;15.496;2023-02-15T14:51:04;100780.00;;;5.71;100.00
25722;BME280;13578;53.450;15.496;2023-02-15T14:54:07;100778.56;;;5.64;100.00
25722;BME280;13578;53.450;15.496;2023-02-15T15:00:35;100777.38;;;5.52;100.00
25722;BME280;13578;53.450;15.496;2023-02-15T15:03:43;100780.22;;;5.50;100.00
25722;BME280;13578;53.450;15.496;2023-02-15T15:07:20;100759.19;;;5.52;100.00
25722;BME280;13578;53.450;15.496;2023-02-15T15:22:46;100743.47;;;5.24;100.00
25722;BME280;13578;53.450;15.496;2023-02-15T15:31:52;100723.59;;;5.04;100.00
25722;BME280;13578;53.450;15.496;2023-02-15T15:35:13;100725.69;;;4.99;100.00
25722;BME280;13578;53.450;15.496;2023-02-15T15:48:36;100726.41;;;4.85;100.00
25722;BME280;13578;53.450;15.496;2023-02-15T15:51:40;100719.38;;;4.81;100.00
25722;BME280;13578;53.450;15.496;2023-02-15T15:54:42;100707.88;;;4.76;100.00
25722;BME280;13578;53.450;15.496;2023-02-15T15:57:45;100713.53;;;4.71;100.00
25722;BME280;13578;53.450;15.496;2023-02-15T16:00:58;100710.41;;;4.61;100.00
25722;BME280;13578;53.450;15.496;2023-02-15T16:03:59;100710.06;;;4.50;100.00
25722;BME280;13578;53.450;15.496;2023-02-15T16:10:25;100703.63;;;4.34;100.00
25722;BME280;13578;53.450;15.496;2023-02-15T16:13:26;100700.56;;;4.22;100.00
25722;BME280;13578;53.450;15.496;2023-02-15T16:16:28;100699.31;;;4.10;100.00
25722;BME280;13578;53.450;15.496;2023-02-15T16:19:33;100696.09;;;4.02;100.00
25722;BME280;13578;53.450;15.496;2023-02-15T16:22:35;100700.88;;;3.97;100.00
25722;BME280;13578;53.450;15.496;2023-02-15T16:28:53;100695.31;;;3.81;100.00
25722;BME280;13578;53.450;15.496;2023-02-15T16:32:02;100683.13;;;3.71;100.00
25722;BME280;13578;53.450;15.496;2023-02-15T16:35:13;100681.78;;;3.60;100.00
25722;BME280;13578;53.450;15.496;2023-02-15T16:38:15;100684.13;;;3.49;100.00
25722;BME280;13578;53.450;15.496;2023-02-15T16:41:21;100679.41;;;3.33;100.00
25722;BME280;13578;53.450;15.496;2023-02-15T16:44:23;100692.59;;;3.22;100.00
25722;BME280;13578;53.450;15.496;2023-02-15T16:47:30;100692.81;;;3.17;100.00
25722;BME280;13578;53.450;15.496;2023-02-15T16:50:33;100695.63;;;3.14;100.00
25722;BME280;13578;53.450;15.496;2023-02-15T16:53:36;100684.19;;;3.08;100.00
25722;BME280;13578;53.450;15.496;2023-02-15T16:56:37;100688.06;;;3.02;100.00
25722;BME280;13578;53.450;15.496;2023-02-15T16:59:41;100685.47;;;2.99;100.00
25722;BME280;13578;53.450;15.496;2023-02-15T17:06:02;100685.16;;;2.86;100.00
25722;BME280;13578;53.450;15.496;2023-02-15T17:09:06;100688.06;;;2.81;100.00
25722;BME280;13578;53.450;15.496;2023-02-15T17:12:09;100682.84;;;2.77;100.00
25722;BME280;13578;53.450;15.496;2023-02-15T17:15:33;100699.03;;;2.78;100.00
25722;BME280;13578;53.450;15.496;2023-02-15T17:18:45;100695.50;;;2.76;100.00
25722;BME280;13578;53.450;15.496;2023-02-15T17:21:50;100695.50;;;2.76;100.00
25722;BME280;13578;53.450;15.496;2023-02-15T17:24:58;100683.16;;;2.69;100.00
25722;BME280;13578;53.450;15.496;2023-02-15T17:27:59;100678.75;;;2.66;100.00
25722;BME280;13578;53.450;15.496;2023-02-15T17:31:06;100680.78;;;2.61;100.00
25722;BME280;13578;53.450;15.496;2023-02-15T17:38:05;100670.31;;;2.31;100.00
25722;BME280;13578;53.450;15.496;2023-02-15T17:41:06;100664.47;;;2.20;100.00
25722;BME280;13578;53.450;15.496;2023-02-15T17:44:07;100667.97;;;2.00;100.00
25722;BME280;13578;53.450;15.496;2023-02-15T17:47:16;100656.66;;;1.90;100.00
25722;BME280;13578;53.450;15.496;2023-02-15T17:50:23;100659.81;;;1.78;100.00
25722;BME280;13578;53.450;15.496;2023-02-15T17:53:24;100654.84;;;1.67;100.00
25722;BME280;13578;53.450;15.496;2023-02-15T17:56:25;100657.63;;;1.65;100.00
25722;BME280;13578;53.450;15.496;2023-02-15T17:59:25;100654.84;;;1.67;100.00
25722;BME280;13578;53.450;15.496;2023-02-15T18:02:31;100641.69;;;1.57;100.00
25722;BME280;13578;53.450;15.496;2023-02-15T18:05:52;100645.63;;;1.49;100.00
25722;BME280;13578;53.450;15.496;2023-02-15T18:09:14;100662.75;;;1.49;100.00
25722;BME280;13578;53.450;15.496;2023-02-15T18:12:35;100646.94;;;1.38;100.00
25722;BME280;13578;53.450;15.496;2023-02-15T18:15:38;100634.28;;;1.15;100.00
25722;BME280;13578;53.450;15.496;2023-02-15T18:18:39;100638.53;;;0.97;100.00
25722;BME280;13578;53.450;15.496;2023-02-15T18:21:39;100624.44;;;0.89;100.00
25722;BME280;13578;53.450;15.496;2023-02-15T18:24:40;100625.50;;;0.85;100.00
25722;BME280;13578;53.450;15.496;2023-02-15T18:27:41;100622.19;;;0.76;100.00
25722;BME280;13578;53.450;15.496;2023-02-15T18:30:42;100616.78;;;0.76;100.00
25722;BME280;13578;53.450;15.496;2023-02-15T18:33:45;100618.09;;;0.65;100.00